Time;durP1;ratioP1;P1;durP2;ratioP2;P2;SDS_P1;SDS_P2;PMS_P1;PMS_P2;Temp;Humidity;BMP_temperature;BMP_pressure;BME280_temperature;BME280_humidity;BME280_pressure;Samples;Min_cycle;Max_cycle;Signal;HPM_P1;HPM_P2
2024/01/17 00:00:22;;;;;;;10.98;5.65;;;;;;;;;;5094163;28;20039;-58
2024/01/17 00:02:47;;;;;;;10.15;5.75;;;;;;;;;;5093557;28;20043;-56
2024/01/17 00:05:13;;;;;;;9.30;5.75;;;;;;;;;;5093943;28;20580;-58
2024/01/17 00:07:38;;;;;;;12.02;5.30;;;;;;;;;;5093999;28;20032;-59
2024/01/17 00:10:04;;;;;;;11.20;5.75;;;;;;;;;;5091742;28;20177;-58
2024/01/17 00:12:30;;;;;;;11.23;6.28;;;;;;;;;;5092824;28;20028;-59
2024/01/17 00:14:56;;;;;;;11.73;6.70;;;;;;;;;;5094083;28;20433;-57
2024/01/17 00:17:22;;;;;;;10.07;5.85;;;;;;;;;;5093956;28;20040;-59
2024/01/17 00:19:47;;;;;;;13.60;6.47;;;;;;;;;;5093688;28;20046;-58
2024/01/17 00:22:16;;;;;;;9.38;5.97;;;;;;;;;;5093736;28;20173;-58
2024/01/17 00:24:41;;;;;;;10.65;6.63;;;;;;;;;;5093848;28;20055;-57
2024/01/17 00:27:08;;;;;;;13.40;7.13;;;;;;;;;;5092283;28;20031;-60
2024/01/17 00:29:34;;;;;;;11.70;6.47;;;;;;;;;;5093671;28;20097;-59
2024/01/17 00:31:59;;;;;;;10.25;6.57;;;;;;;;;;5092138;28;20032;-59
2024/01/17 00:34:25;;;;;;;13.02;7.00;;;;;;;;;;5093584;28;20032;-59
2024/01/17 00:36:50;;;;;;;12.82;6.32;;;;;;;;;;5092822;28;20089;-58
2024/01/17 00:39:16;;;;;;;14.90;7.47;;;;;;;;;;5093406;28;20072;-58
2024/01/17 00:41:42;;;;;;;13.63;7.75;;;;;;;;;;5091754;28;20073;-58
2024/01/17 00:44:08;;;;;;;14.48;7.85;;;;;;;;;;5093348;28;20138;-58
2024/01/17 00:46:33;;;;;;;15.23;7.43;;;;;;;;;;5092985;28;20123;-59
2024/01/17 00:48:59;;;;;;;13.82;7.10;;;;;;;;;;5093315;28;20063;-58
2024/01/17 00:51:25;;;;;;;12.35;6.57;;;;;;;;;;5093207;28;20493;-59
2024/01/17 00:53:53;;;;;;;16.65;7.70;;;;;;;;;;5093115;28;20552;-58
2024/01/17 00:56:19;;;;;;;12.07;7.07;;;;;;;;;;5093073;28;20055;-57
2024/01/17 00:58:45;;;;;;;13.93;7.07;;;;;;;;;;5079077;28;20083;-58
2024/01/17 01:01:10;;;;;;;13.63;7.22;;;;;;;;;;5072558;28;20033;-57
2024/01/17 01:03:36;;;;;;;14.52;7.10;;;;;;;;;;5072225;28;20056;-59
2024/01/17 01:06:01;;;;;;;12.57;6.53;;;;;;;;;;5071524;28;20123;-59
2024/01/17 01:08:27;;;;;;;11.32;6.18;;;;;;;;;;5072311;28;20144;-57
2024/01/17 01:10:53;;;;;;;10.85;6.50;;;;;;;;;;5072595;28;20048;-57
2024/01/17 01:13:18;;;;;;;14.45;7.35;;;;;;;;;;5088293;28;20051;-58
2024/01/17 01:15:44;;;;;;;13.10;6.95;;;;;;;;;;5092491;28;20177;-59
2024/01/17 01:18:10;;;;;;;13.50;6.22;;;;;;;;;;5092563;28;20068;-57
2024/01/17 01:20:35;;;;;;;10.90;6.65;;;;;;;;;;5091212;28;20032;-58
2024/01/17 01:23:01;;;;;;;13.70;7.07;;;;;;;;;;5092350;28;20116;-58
2024/01/17 01:25:26;;;;;;;10.98;6.03;;;;;;;;;;5092489;28;20029;-59
2024/01/17 01:27:52;;;;;;;11.90;6.55;;;;;;;;;;5091027;28;20189;-56
2024/01/17 01:30:17;;;;;;;11.68;5.97;;;;;;;;;;5092495;28;20443;-58
2024/01/17 01:32:43;;;;;;;14.23;7.05;;;;;;;;;;5091272;28;20031;-59
2024/01/17 01:35:08;;;;;;;13.65;6.72;;;;;;;;;;5092178;28;20044;-58
2024/01/17 01:37:34;;;;;;;13.07;6.18;;;;;;;;;;5091213;28;20039;-59
2024/01/17 01:40:00;;;;;;;11.73;6.35;;;;;;;;;;5092713;28;20040;-58
2024/01/17 01:42:25;;;;;;;14.73;7.03;;;;;;;;;;5092345;28;20039;-57
2024/01/17 01:44:51;;;;;;;13.15;6.78;;;;;;;;;;5074108;28;20543;-58
2024/01/17 01:47:17;;;;;;;14.65;7.47;;;;;;;;;;5091725;28;20119;-59
2024/01/17 01:49:42;;;;;;;17.63;7.13;;;;;;;;;;5091914;28;20051;-57
2024/01/17 01:52:08;;;;;;;13.55;7.07;;;;;;;;;;5092182;28;20028;-59
2024/01/17 01:54:34;;;;;;;13.02;6.72;;;;;;;;;;5090752;28;20036;-58
2024/01/17 01:57:02;;;;;;;13.63;6.90;;;;;;;;;;5090606;28;20032;-59
2024/01/17 01:59:27;;;;;;;13.68;7.47;;;;;;;;;;5072108;28;20028;-57
2024/01/17 02:01:54;;;;;;;12.45;6.75;;;;;;;;;;5070204;28;20421;-60
2024/01/17 02:04:20;;;;;;;13.20;7.18;;;;;;;;;;5071493;28;20162;-58
2024/01/17 02:06:46;;;;;;;13.30;7.00;;;;;;;;;;5071709;28;20465;-59
2024/01/17 02:09:13;;;;;;;9.82;6.65;;;;;;;;;;5071181;28;20517;-59
2024/01/17 02:11:39;;;;;;;14.43;7.30;;;;;;;;;;5072899;28;20032;-59
2024/01/17 02:14:05;;;;;;;15.00;6.40;;;;;;;;;;5090402;28;20051;-58
2024/01/17 02:16:33;;;;;;;14.25;7.13;;;;;;;;;;5091985;28;20032;-59
2024/01/17 02:18:59;;;;;;;12.77;6.45;;;;;;;;;;5091973;28;20409;-57
2024/01/17 02:21:26;;;;;;;16.15;6.35;;;;;;;;;;5091229;28;20032;-59
2024/01/17 02:23:52;;;;;;;14.75;7.18;;;;;;;;;;5091683;28;20467;-58
2024/01/17 02:26:18;;;;;;;10.95;6.15;;;;;;;;;;5091500;28;20107;-58
2024/01/17 02:28:43;;;;;;;14.23;6.82;;;;;;;;;;5091560;28;20135;-58
2024/01/17 02:31:09;;;;;;;15.68;7.35;;;;;;;;;;5069723;28;20472;-60
2024/01/17 02:33:35;;;;;;;14.50;6.95;;;;;;;;;;5069926;28;20060;-57
2024/01/17 02:36:01;;;;;;;15.43;8.00;;;;;;;;;;5071150;28;20469;-59
2024/01/17 02:38:26;;;;;;;13.95;7.00;;;;;;;;;;5087851;28;20040;-58
2024/01/17 02:40:52;;;;;;;12.55;6.40;;;;;;;;;;5091332;28;20028;-59
2024/01/17 02:43:18;;;;;;;11.98;6.13;;;;;;;;;;5091439;28;20047;-58
2024/01/17 02:45:43;;;;;;;13.40;7.28;;;;;;;;;;5091549;28;20039;-59
2024/01/17 02:48:09;;;;;;;12.95;6.25;;;;;;;;;;5089932;28;20105;-57
2024/01/17 02:50:34;;;;;;;15.63;6.90;;;;;;;;;;5091429;28;20024;-58
2024/01/17 02:53:00;;;;;;;13.25;6.35;;;;;;;;;;5090690;28;20055;-58
2024/01/17 02:55:26;;;;;;;11.30;6.43;;;;;;;;;;5091258;28;20032;-55
2024/01/17 02:57:52;;;;;;;16.00;7.03;;;;;;;;;;5084612;28;20043;-58
2024/01/17 03:00:18;;;;;;;13.73;6.68;;;;;;;;;;5073739;28;20035;-57
2024/01/17 03:02:44;;;;;;;11.98;6.90;;;;;;;;;;5074563;28;20044;-57
2024/01/17 03:05:10;;;;;;;11.90;6.25;;;;;;;;;;5075010;28;20036;-58
2024/01/17 03:07:36;;;;;;;13.48;5.78;;;;;;;;;;5074589;28;20036;-58
2024/01/17 03:10:01;;;;;;;10.80;5.93;;;;;;;;;;5074445;28;20070;-56
2024/01/17 03:12:29;;;;;;;11.90;5.93;;;;;;;;;;5074828;28;20055;-57
2024/01/17 03:14:55;;;;;;;12.32;6.28;;;;;;;;;;5073455;28;20405;-58
2024/01/17 03:17:20;;;;;;;12.63;5.90;;;;;;;;;;5074858;28;20036;-59
2024/01/17 03:19:47;;;;;;;12.15;6.30;;;;;;;;;;5074812;28;20100;-58
2024/01/17 03:22:14;;;;;;;10.65;5.82;;;;;;;;;;5080257;28;20039;-59
2024/01/17 03:24:40;;;;;;;12.00;5.85;;;;;;;;;;5094749;28;20125;-57
2024/01/17 03:27:06;;;;;;;9.00;4.65;;;;;;;;;;5094765;28;20074;-58
2024/01/17 03:29:31;;;;;;;13.40;5.82;;;;;;;;;;5094881;28;20496;-57
2024/01/17 03:31:57;;;;;;;11.30;5.50;;;;;;;;;;5094304;28;20176;-60
2024/01/17 03:34:22;;;;;;;12.25;6.00;;;;;;;;;;5094835;28;20072;-58
2024/01/17 03:36:48;;;;;;;14.10;5.38;;;;;;;;;;5094414;28;20043;-60
2024/01/17 03:39:14;;;;;;;11.68;6.00;;;;;;;;;;5093941;28;20114;-58
2024/01/17 03:41:39;;;;;;;11.32;5.75;;;;;;;;;;5094561;28;20043;-58
2024/01/17 03:44:05;;;;;;;12.70;5.55;;;;;;;;;;5094557;28;20040;-56
2024/01/17 03:46:31;;;;;;;10.57;5.13;;;;;;;;;;5094036;28;20123;-56
2024/01/17 03:48:57;;;;;;;7.63;5.15;;;;;;;;;;5094361;28;20115;-58
2024/01/17 03:51:22;;;;;;;12.30;5.75;;;;;;;;;;5093038;28;20123;-60
2024/01/17 03:53:48;;;;;;;11.90;6.00;;;;;;;;;;5094265;28;20036;-58
2024/01/17 03:56:14;;;;;;;9.48;5.47;;;;;;;;;;5094268;28;20070;-58
2024/01/17 03:58:40;;;;;;;9.30;5.40;;;;;;;;;;5080600;28;20378;-58
2024/01/17 04:01:05;;;;;;;11.95;5.72;;;;;;;;;;5073690;28;20028;-58
2024/01/17 04:03:31;;;;;;;12.43;5.78;;;;;;;;;;5074537;28;20097;-56
2024/01/17 04:05:57;;;;;;;13.93;5.43;;;;;;;;;;5094163;28;20497;-59
2024/01/17 04:08:22;;;;;;;10.15;5.57;;;;;;;;;;5093537;28;20123;-58
2024/01/17 04:10:48;;;;;;;9.82;5.25;;;;;;;;;;5092940;28;20036;-58
2024/01/17 04:13:13;;;;;;;10.15;5.03;;;;;;;;;;5092464;28;20034;-58
2024/01/17 04:15:40;;;;;;;14.63;6.00;;;;;;;;;;5092416;28;20036;-59
2024/01/17 04:18:06;;;;;;;11.27;5.60;;;;;;;;;;5093604;28;20032;-58
2024/01/17 04:20:32;;;;;;;11.45;6.03;;;;;;;;;;5093538;28;20073;-58
2024/01/17 04:22:58;;;;;;;14.98;5.70;;;;;;;;;;5093323;28;20047;-56
2024/01/17 04:25:24;;;;;;;11.55;5.63;;;;;;;;;;5092703;28;20037;-57
2024/01/17 04:27:49;;;;;;;9.90;5.97;;;;;;;;;;5056290;28;20033;-57
2024/01/17 04:30:15;;;;;;;11.98;6.40;;;;;;;;;;5071935;28;20366;-59
2024/01/17 04:32:41;;;;;;;12.38;5.70;;;;;;;;;;5078792;28;20032;-60
2024/01/17 04:35:07;;;;;;;9.80;5.55;;;;;;;;;;5093256;28;20497;-59
2024/01/17 04:37:33;;;;;;;11.52;5.90;;;;;;;;;;5092001;28;20040;-59
2024/01/17 04:39:58;;;;;;;15.45;6.60;;;;;;;;;;5093305;28;20039;-58
2024/01/17 04:42:24;;;;;;;12.13;6.07;;;;;;;;;;5091950;28;20555;-59
2024/01/17 04:44:50;;;;;;;13.73;6.63;;;;;;;;;;5093465;28;20035;-57
2024/01/17 04:47:16;;;;;;;11.18;5.05;;;;;;;;;;5093056;28;20044;-58
2024/01/17 04:49:42;;;;;;;12.88;6.40;;;;;;;;;;5092975;28;20064;-58
2024/01/17 04:52:09;;;;;;;12.02;5.53;;;;;;;;;;5092945;28;20042;-58
2024/01/17 04:54:35;;;;;;;12.90;5.72;;;;;;;;;;5090776;28;20040;-57
2024/01/17 04:57:00;;;;;;;10.55;5.88;;;;;;;;;;5092085;28;20081;-58
2024/01/17 04:59:26;;;;;;;13.10;6.22;;;;;;;;;;5073193;28;20134;-59
2024/01/17 05:01:52;;;;;;;10.50;5.70;;;;;;;;;;5078353;28;20092;-58
2024/01/17 05:04:18;;;;;;;15.63;5.82;;;;;;;;;;5092187;28;20084;-61
2024/01/17 05:06:43;;;;;;;11.55;5.40;;;;;;;;;;5092911;28;20063;-60
2024/01/17 05:09:11;;;;;;;10.70;5.13;;;;;;;;;;5090867;28;20488;-61
2024/01/17 05:11:39;;;;;;;10.48;5.32;;;;;;;;;;5092426;28;20039;-60
2024/01/17 05:14:05;;;;;;;14.07;6.63;;;;;;;;;;5051613;28;20040;-60
2024/01/17 05:16:31;;;;;;;11.30;5.38;;;;;;;;;;5083752;28;20554;-61
2024/01/17 05:18:57;;;;;;;10.30;5.13;;;;;;;;;;5092679;28;20511;-61
2024/01/17 05:21:22;;;;;;;9.63;5.53;;;;;;;;;;5092527;28;20553;-62
2024/01/17 05:23:48;;;;;;;12.45;5.97;;;;;;;;;;5092049;28;20424;-60
2024/01/17 05:26:13;;;;;;;10.13;5.57;;;;;;;;;;5092219;28;20046;-61
2024/01/17 05:28:39;;;;;;;12.23;5.60;;;;;;;;;;5092190;28;20048;-60
2024/01/17 05:31:05;;;;;;;9.90;4.97;;;;;;;;;;5092372;28;20034;-60
2024/01/17 05:33:30;;;;;;;11.75;5.85;;;;;;;;;;5091958;28;20098;-60
2024/01/17 05:35:56;;;;;;;15.65;5.50;;;;;;;;;;5091202;28;20386;-60
2024/01/17 05:38:22;;;;;;;10.13;5.88;;;;;;;;;;5091286;28;20040;-59
2024/01/17 05:40:47;;;;;;;10.05;6.15;;;;;;;;;;5072208;28;20083;-63
2024/01/17 05:43:13;;;;;;;11.00;5.75;;;;;;;;;;5068335;28;20053;-59
2024/01/17 05:45:39;;;;;;;12.90;5.80;;;;;;;;;;5087460;28;20026;-58
2024/01/17 05:48:04;;;;;;;13.82;5.70;;;;;;;;;;5087561;28;20040;-59
2024/01/17 05:50:30;;;;;;;11.93;6.30;;;;;;;;;;5087920;28;20122;-59
2024/01/17 05:52:56;;;;;;;12.60;5.65;;;;;;;;;;5089475;28;20046;-58
2024/01/17 05:55:21;;;;;;;11.32;5.10;;;;;;;;;;5088388;28;20102;-58
2024/01/17 05:57:47;;;;;;;10.80;5.72;;;;;;;;;;5089767;28;20032;-59
2024/01/17 06:00:13;;;;;;;10.23;5.28;;;;;;;;;;5090442;28;20130;-59
2024/01/17 06:02:39;;;;;;;10.20;4.80;;;;;;;;;;5091026;28;20036;-60
2024/01/17 06:05:07;;;;;;;11.75;5.28;;;;;;;;;;5077451;28;20036;-59
2024/01/17 06:07:33;;;;;;;12.40;5.90;;;;;;;;;;5078395;28;20496;-57
2024/01/17 06:09:59;;;;;;;10.32;5.15;;;;;;;;;;5091635;28;20059;-60
2024/01/17 06:12:24;;;;;;;11.05;5.03;;;;;;;;;;5089503;28;20031;-59
2024/01/17 06:14:50;;;;;;;9.40;5.22;;;;;;;;;;5091449;28;20115;-58
2024/01/17 06:17:16;;;;;;;11.70;5.65;;;;;;;;;;5090287;28;20032;-59
2024/01/17 06:19:42;;;;;;;10.15;5.20;;;;;;;;;;5091534;28;20169;-57
2024/01/17 06:22:08;;;;;;;9.52;6.05;;;;;;;;;;5091344;28;20054;-59
2024/01/17 06:24:36;;;;;;;12.10;5.72;;;;;;;;;;5091585;28;20405;-58
2024/01/17 06:27:02;;;;;;;12.55;5.38;;;;;;;;;;5089466;28;20039;-60
2024/01/17 06:29:30;;;;;;;12.40;4.97;;;;;;;;;;5091019;28;20063;-58
2024/01/17 06:31:56;;;;;;;10.65;5.90;;;;;;;;;;5086379;28;20020;-59
2024/01/17 06:34:22;;;;;;;9.52;4.38;;;;;;;;;;5090545;28;20485;-58
2024/01/17 06:36:47;;;;;;;13.15;5.53;;;;;;;;;;5092606;28;20024;-60
2024/01/17 06:39:16;;;;;;;19.05;6.45;;;;;;;;;;5095171;28;20040;-59
2024/01/17 06:41:41;;;;;;;8.95;4.90;;;;;;;;;;5094614;28;20036;-59
2024/01/17 06:44:09;;;;;;;7.07;4.30;;;;;;;;;;5095134;28;20074;-58
2024/01/17 06:46:35;;;;;;;13.27;5.88;;;;;;;;;;5076456;28;20078;-59
2024/01/17 06:49:01;;;;;;;10.27;4.95;;;;;;;;;;5095419;28;20436;-60
2024/01/17 06:51:26;;;;;;;12.18;5.35;;;;;;;;;;5093496;28;20031;-57
2024/01/17 06:53:52;;;;;;;11.45;5.55;;;;;;;;;;5095309;28;20067;-61
2024/01/17 06:56:17;;;;;;;8.15;4.28;;;;;;;;;;5093758;28;20066;-60
2024/01/17 06:58:43;;;;;;;13.13;5.95;;;;;;;;;;5095092;28;20040;-59
2024/01/17 07:01:09;;;;;;;11.30;5.53;;;;;;;;;;5094793;28;20028;-61
2024/01/17 07:03:35;;;;;;;14.13;5.32;;;;;;;;;;5093937;28;20479;-59
2024/01/17 07:06:01;;;;;;;11.55;5.45;;;;;;;;;;5094348;28;20032;-59
2024/01/17 07:08:27;;;;;;;13.68;5.78;;;;;;;;;;5094076;28;20048;-58
2024/01/17 07:10:52;;;;;;;13.98;5.07;;;;;;;;;;5093150;28;20032;-59
2024/01/17 07:13:18;;;;;;;11.18;5.07;;;;;;;;;;5094606;28;20420;-59
2024/01/17 07:15:43;;;;;;;8.68;5.00;;;;;;;;;;5094526;28;20367;-60
2024/01/17 07:18:09;;;;;;;7.78;4.68;;;;;;;;;;5094722;28;20053;-58
2024/01/17 07:20:34;;;;;;;11.93;5.13;;;;;;;;;;5094570;28;20602;-62
2024/01/17 07:23:01;;;;;;;14.32;5.22;;;;;;;;;;5094596;28;20556;-59
2024/01/17 07:25:26;;;;;;;10.85;5.30;;;;;;;;;;5094520;28;20285;-60
2024/01/17 07:27:52;;;;;;;9.73;5.30;;;;;;;;;;5094360;28;20512;-58
2024/01/17 07:30:19;;;;;;;10.52;5.07;;;;;;;;;;5094427;28;20500;-59
2024/01/17 07:32:45;;;;;;;11.85;5.15;;;;;;;;;;5094401;28;20053;-58
2024/01/17 07:35:10;;;;;;;9.45;4.95;;;;;;;;;;5094135;28;20131;-61
2024/01/17 07:37:36;;;;;;;10.40;4.40;;;;;;;;;;5093698;28;20036;-58
2024/01/17 07:40:02;;;;;;;11.10;4.20;;;;;;;;;;5093303;28;20045;-60
2024/01/17 07:42:29;;;;;;;13.50;4.88;;;;;;;;;;5092360;28;20040;-60
2024/01/17 07:44:55;;;;;;;9.63;5.10;;;;;;;;;;5092998;28;20500;-60
2024/01/17 07:47:20;;;;;;;10.85;4.82;;;;;;;;;;5093187;28;20078;-58
2024/01/17 07:49:46;;;;;;;7.72;3.72;;;;;;;;;;5094163;28;20043;-59
2024/01/17 07:52:12;;;;;;;7.20;3.75;;;;;;;;;;5094053;28;20043;-59
2024/01/17 07:54:38;;;;;;;9.55;4.10;;;;;;;;;;5093744;28;20036;-61
2024/01/17 07:57:04;;;;;;;9.20;4.90;;;;;;;;;;5092318;28;20036;-61
2024/01/17 07:59:30;;;;;;;8.18;4.95;;;;;;;;;;5073866;28;20048;-62
2024/01/17 08:01:56;;;;;;;10.25;4.75;;;;;;;;;;5084041;28;20027;-60
2024/01/17 08:04:22;;;;;;;8.55;4.25;;;;;;;;;;5093518;28;20040;-59
2024/01/17 08:06:48;;;;;;;10.30;4.00;;;;;;;;;;5091778;28;20054;-60
2024/01/17 08:09:26;;;;;;;10.20;4.38;;;;;;;;;;5092774;28;20071;-59
2024/01/17 08:11:52;;;;;;;9.23;4.03;;;;;;;;;;5093336;28;20032;-60
2024/01/17 08:14:18;;;;;;;6.60;3.97;;;;;;;;;;5091150;28;20081;-60
2024/01/17 08:16:44;;;;;;;8.48;3.92;;;;;;;;;;5089686;28;20028;-61
2024/01/17 08:19:10;;;;;;;9.90;4.78;;;;;;;;;;5093692;28;20040;-59
2024/01/17 08:21:36;;;;;;;9.57;4.30;;;;;;;;;;5093440;28;20085;-62
2024/01/17 08:24:02;;;;;;;6.95;4.35;;;;;;;;;;5093613;28;20063;-59
2024/01/17 08:26:28;;;;;;;9.60;3.97;;;;;;;;;;5091793;28;20409;-62
2024/01/17 08:28:54;;;;;;;6.68;4.28;;;;;;;;;;5093070;28;20089;-60
2024/01/17 08:31:20;;;;;;;8.90;4.30;;;;;;;;;;5093206;28;20424;-61
2024/01/17 08:33:45;;;;;;;8.52;4.30;;;;;;;;;;5093210;28;20130;-60
2024/01/17 08:36:12;;;;;;;9.60;4.05;;;;;;;;;;5092871;28;20497;-62
2024/01/17 08:38:37;;;;;;;7.03;4.00;;;;;;;;;;5093159;28;20036;-60
2024/01/17 08:41:03;;;;;;;6.78;3.88;;;;;;;;;;5093102;28;20046;-61
2024/01/17 08:43:29;;;;;;;7.25;4.30;;;;;;;;;;5092845;28;20463;-61
2024/01/17 08:45:54;;;;;;;7.57;3.88;;;;;;;;;;5091392;28;20515;-64
